Time;durP1;ratioP1;P1;durP2;ratioP2;P2;SDS_P1;SDS_P2;PMS_P1;PMS_P2;Temp;Humidity;BMP_temperature;BMP_pressure;BME280_temperature;BME280_humidity;BME280_pressure;Samples;Min_cycle;Max_cycle;Signal;HPM_P1;HPM_P2
2022/08/07 00:00:27;;;;;;;;;;;13.80;99.90;;;;;;5013540;28;20016;-82
2022/08/07 00:02:56;;;;;;;;;;;13.80;99.90;;;;;;5013706;28;19926;-82
2022/08/07 00:05:22;;;;;;;;;;;13.80;99.90;;;;;;5013787;28;20295;-82
2022/08/07 00:07:48;;;;;;;;;;;13.80;99.90;;;;;;5012713;28;20062;-82
2022/08/07 00:10:14;;;;;;;;;;;13.80;99.90;;;;;;5013606;28;20031;-82
2022/08/07 00:12:40;;;;;;;;;;;13.70;99.90;;;;;;5030222;28;19925;-82
2022/08/07 00:15:06;;;;;;;;;;;13.70;99.90;;;;;;5013693;28;20289;-83
2022/08/07 00:17:31;;;;;;;;;;;13.70;99.90;;;;;;5030093;28;19925;-81
2022/08/07 00:19:57;;;;;;;;;;;13.80;99.90;;;;;;5029710;28;20308;-82
2022/08/07 00:22:22;;;;;;;;;;;13.80;99.90;;;;;;5030029;28;20025;-82
2022/08/07 00:24:48;;;;;;;;;;;13.80;99.90;;;;;;5013370;28;19934;-82
2022/08/07 00:27:13;;;;;;;;;;;13.80;99.90;;;;;;5013224;28;19932;-82
2022/08/07 00:29:39;;;;;;;;;;;13.80;99.90;;;;;;5013411;28;19925;-81
2022/08/07 00:32:05;;;;;;;;;;;13.80;99.90;;;;;;5029430;28;19925;-82
2022/08/07 00:34:31;;;;;;;;;;;13.80;99.90;;;;;;5029971;28;20323;-82
2022/08/07 00:36:56;;;;;;;;;;;13.70;99.90;;;;;;5029084;28;19936;-82
2022/08/07 00:39:22;;;;;;;;;;;13.70;99.90;;;;;;5013074;28;19968;-82
2022/08/07 00:41:52;;;;;;;;;;;13.70;99.90;;;;;;5013125;28;19925;-82
2022/08/07 00:44:18;;;;;;;;;;;13.70;99.90;;;;;;5029468;28;20365;-82
2022/08/07 00:46:44;;;;;;;;;;;13.70;99.90;;;;;;5013395;28;19933;-82
2022/08/07 00:49:09;;;;;;;;;;;13.70;99.90;;;;;;5013184;28;19979;-82
2022/08/07 00:51:35;;;;;;;;;;;13.60;99.90;;;;;;5013295;28;19925;-82
2022/08/07 00:54:01;;;;;;;;;;;13.60;99.90;;;;;;5012699;28;19974;-82
2022/08/07 00:56:28;;;;;;;;;;;13.60;99.90;;;;;;5013135;28;19976;-82
2022/08/07 00:58:55;;;;;;;;;;;13.60;99.90;;;;;;5115910;28;19929;-82
2022/08/07 01:01:21;;;;;;;;;;;13.60;99.90;;;;;;5029151;28;20384;-82
2022/08/07 01:03:47;;;;;;;;;;;13.60;99.90;;;;;;5013081;28;19936;-91
2022/08/07 01:06:13;;;;;;;;;;;13.60;99.90;;;;;;5012997;28;19925;-82
2022/08/07 01:08:39;;;;;;;;;;;13.60;99.90;;;;;;4996684;28;19980;-82
2022/08/07 01:11:05;;;;;;;;;;;13.60;99.90;;;;;;5029192;28;19926;-83
2022/08/07 01:13:31;;;;;;;;;;;13.60;99.90;;;;;;5012954;28;19932;-82
2022/08/07 01:15:57;;;;;;;;;;;13.60;99.90;;;;;;5012750;28;20273;-82
2022/08/07 01:18:23;;;;;;;;;;;13.60;99.90;;;;;;5117152;27;19929;-82
2022/08/07 01:20:53;;;;;;;;;;;13.50;99.90;;;;;;5015893;28;19977;-91
2022/08/07 01:23:18;;;;;;;;;;;13.40;99.90;;;;;;5032689;28;19925;-82
2022/08/07 01:25:45;;;;;;;;;;;13.40;99.90;;;;;;5032650;28;19925;-82
2022/08/07 01:28:10;;;;;;;;;;;13.40;99.90;;;;;;5032537;28;19929;-82
2022/08/07 01:30:37;;;;;;;;;;;13.30;99.90;;;;;;5119755;27;20280;-82
2022/08/07 01:33:02;;;;;;;;;;;13.30;99.90;;;;;;4999821;28;19970;-82
2022/08/07 01:35:28;;;;;;;;;;;13.30;99.90;;;;;;5032479;28;19925;-82
2022/08/07 01:37:54;;;;;;;;;;;13.30;99.90;;;;;;5015218;28;19925;-82
2022/08/07 01:40:20;;;;;;;;;;;13.30;99.90;;;;;;5015343;28;19926;-82
2022/08/07 01:42:46;;;;;;;;;;;13.30;99.90;;;;;;5015682;28;20289;-82
2022/08/07 01:45:11;;;;;;;;;;;13.20;99.90;;;;;;5015766;28;19925;-82
2022/08/07 01:47:37;;;;;;;;;;;13.20;99.90;;;;;;5032399;28;20383;-82
2022/08/07 01:50:03;;;;;;;;;;;13.20;99.90;;;;;;4999355;28;20322;-82
2022/08/07 01:52:30;;;;;;;;;;;13.10;99.90;;;;;;5015753;28;19925;-82
2022/08/07 01:54:57;;;;;;;;;;;13.10;99.90;;;;;;5032093;28;19925;-82
2022/08/07 01:57:26;;;;;;;;;;;13.10;99.90;;;;;;5032250;28;19925;-82
2022/08/07 01:59:59;;;;;;;;;;;13.00;99.90;;;;;;5015554;28;19925;-82
2022/08/07 02:02:45;;;;;;;;;;;13.00;99.90;;;;;;5032213;28;20008;-81
2022/08/07 02:05:13;;;;;;;;;;;13.00;99.90;;;;;;5030980;28;19925;-82
2022/08/07 02:07:41;;;;;;;;;;;12.90;99.90;;;;;;5032272;28;19925;-82
2022/08/07 02:10:07;;;;;;;;;;;13.00;99.90;;;;;;5031838;28;20444;-83
2022/08/07 02:12:36;;;;;;;;;;;13.00;99.90;;;;;;5015608;28;20280;-82
2022/08/07 02:15:02;;;;;;;;;;;12.90;99.90;;;;;;5015369;28;19925;-82
2022/08/07 02:17:28;;;;;;;;;;;12.90;99.90;;;;;;5015465;28;19925;-82
2022/08/07 02:19:55;;;;;;;;;;;12.90;99.90;;;;;;4998800;28;20384;-82
2022/08/07 02:22:22;;;;;;;;;;;12.90;99.90;;;;;;5015252;28;20277;-82
2022/08/07 02:24:49;;;;;;;;;;;12.90;99.90;;;;;;5031523;28;20373;-82
2022/08/07 02:27:17;;;;;;;;;;;12.90;99.90;;;;;;5015150;28;19991;-81
2022/08/07 02:29:43;;;;;;;;;;;12.80;99.90;;;;;;5014234;28;19926;-82
2022/08/07 02:32:09;;;;;;;;;;;12.90;99.90;;;;;;5118221;27;20011;-82
2022/08/07 02:34:36;;;;;;;;;;;12.80;99.90;;;;;;5031640;28;20276;-81
2022/08/07 02:37:04;;;;;;;;;;;12.80;99.90;;;;;;5014712;28;19929;-82
2022/08/07 02:39:32;;;;;;;;;;;12.80;99.90;;;;;;5031190;28;20401;-81
2022/08/07 02:41:58;;;;;;;;;;;12.80;99.90;;;;;;5015093;28;20008;-82
2022/08/07 02:44:24;;;;;;;;;;;12.80;99.90;;;;;;5014543;28;20368;-82
2022/08/07 02:46:52;;;;;;;;;;;12.70;99.90;;;;;;4998816;28;19925;-81
2022/08/07 02:49:18;;;;;;;;;;;12.70;99.90;;;;;;5031241;28;20254;-82
2022/08/07 02:51:44;;;;;;;;;;;12.70;99.90;;;;;;5014878;28;19932;-82
2022/08/07 02:54:10;;;;;;;;;;;12.70;99.90;;;;;;5118250;27;19925;-82
2022/08/07 02:56:37;;;;;;;;;;;12.60;99.90;;;;;;5031607;28;19931;-82
2022/08/07 02:59:04;;;;;;;;;;;12.50;99.90;;;;;;5030797;28;19925;-82
2022/08/07 03:01:30;;;;;;;;;;;12.50;99.90;;;;;;5014846;28;19925;-82
2022/08/07 03:03:56;;;;;;;;;;;12.50;99.90;;;;;;5014978;28;19948;-82
2022/08/07 03:06:22;;;;;;;;;;;12.50;99.90;;;;;;5031024;28;20337;-82
2022/08/07 03:08:48;;;;;;;;;;;12.50;99.90;;;;;;5031172;28;20007;-82
2022/08/07 03:11:14;;;;;;;;;;;12.50;99.90;;;;;;5117522;27;19925;-82
2022/08/07 03:13:40;;;;;;;;;;;12.50;99.90;;;;;;5014250;28;20009;-81
2022/08/07 03:16:06;;;;;;;;;;;12.50;99.90;;;;;;5014115;28;19925;-82
2022/08/07 03:18:32;;;;;;;;;;;12.50;99.90;;;;;;5014587;28;19932;-82
2022/08/07 03:20:57;;;;;;;;;;;12.50;99.90;;;;;;5030581;28;19925;-81
2022/08/07 03:23:25;;;;;;;;;;;12.50;99.90;;;;;;5030848;28;19932;-81
2022/08/07 03:25:51;;;;;;;;;;;12.50;99.90;;;;;;5014614;28;20019;-82
2022/08/07 03:28:17;;;;;;;;;;;12.50;99.90;;;;;;5030680;28;19979;-82
2022/08/07 03:30:43;;;;;;;;;;;12.50;99.90;;;;;;5014362;28;19974;-82
2022/08/07 03:33:09;;;;;;;;;;;12.50;99.90;;;;;;5014044;28;19932;-82
2022/08/07 03:35:35;;;;;;;;;;;12.50;99.90;;;;;;5031060;28;19925;-81
2022/08/07 03:38:02;;;;;;;;;;;12.60;99.90;;;;;;5014274;28;19925;-81
2022/08/07 03:40:28;;;;;;;;;;;12.60;99.90;;;;;;5030166;28;19926;-81
2022/08/07 03:42:54;;;;;;;;;;;12.60;99.90;;;;;;5014186;28;20000;-82
2022/08/07 03:45:21;;;;;;;;;;;12.60;99.90;;;;;;5116967;27;19925;-82
2022/08/07 03:47:47;;;;;;;;;;;12.50;99.90;;;;;;5014077;28;19936;-81
2022/08/07 03:50:12;;;;;;;;;;;12.50;99.90;;;;;;5030370;28;20017;-82
2022/08/07 03:52:39;;;;;;;;;;;12.50;99.90;;;;;;5116602;27;20338;-81
2022/08/07 03:55:05;;;;;;;;;;;12.50;99.90;;;;;;5030252;28;20296;-83
2022/08/07 03:57:31;;;;;;;;;;;12.40;99.90;;;;;;5013780;28;19932;-82
2022/08/07 03:59:57;;;;;;;;;;;12.40;99.90;;;;;;5013710;28;19932;-81
2022/08/07 04:02:23;;;;;;;;;;;12.30;99.90;;;;;;5013425;28;20382;-82
2022/08/07 04:04:49;;;;;;;;;;;12.30;99.90;;;;;;5013951;28;19929;-82
2022/08/07 04:07:18;;;;;;;;;;;12.30;99.90;;;;;;5013676;28;19925;-82
2022/08/07 04:09:44;;;;;;;;;;;12.30;99.90;;;;;;4997443;28;19931;-81
2022/08/07 04:12:11;;;;;;;;;;;12.30;99.90;;;;;;5013779;28;20035;-82
2022/08/07 04:14:37;;;;;;;;;;;12.20;99.90;;;;;;5030148;28;19984;-82
2022/08/07 04:17:03;;;;;;;;;;;12.20;99.90;;;;;;5030093;28;20019;-82
2022/08/07 04:19:29;;;;;;;;;;;12.20;99.90;;;;;;5013084;28;20012;-82
2022/08/07 04:21:54;;;;;;;;;;;12.20;99.90;;;;;;4997344;28;19929;-82
2022/08/07 04:24:20;;;;;;;;;;;12.30;99.90;;;;;;5029923;28;19984;-82
2022/08/07 04:26:46;;;;;;;;;;;12.30;99.90;;;;;;4997273;28;19925;-82
2022/08/07 04:29:11;;;;;;;;;;;12.30;99.90;;;;;;4997126;28;20016;-82
2022/08/07 04:31:38;;;;;;;;;;;12.30;99.90;;;;;;5029682;28;19932;-81
2022/08/07 04:34:04;;;;;;;;;;;12.30;99.90;;;;;;5013476;28;19925;-81
2022/08/07 04:36:30;;;;;;;;;;;12.30;99.90;;;;;;5029052;28;20380;-82
2022/08/07 04:38:55;;;;;;;;;;;12.30;99.90;;;;;;5013497;28;19970;-82
2022/08/07 04:41:21;;;;;;;;;;;12.30;99.90;;;;;;5029638;28;20019;-82
2022/08/07 04:43:47;;;;;;;;;;;12.30;99.90;;;;;;5133896;27;19936;-81
2022/08/07 04:46:26;;;;;;;;;;;12.30;99.90;;;;;;5029720;28;19925;-82
2022/08/07 04:49:01;;;;;;;;;;;12.40;99.90;;;;;;5013201;28;19932;-82
2022/08/07 04:51:53;;;;;;;;;;;12.40;99.90;;;;;;5012965;28;19933;-82
2022/08/07 04:54:38;;;;;;;;;;;12.40;99.90;;;;;;5008415;28;20020;-82
2022/08/07 04:57:09;;;;;;;;;;;12.40;99.90;;;;;;5116369;28;19978;-82
2022/08/07 04:59:54;;;;;;;;;;;12.50;99.90;;;;;;5029214;28;19925;-82
2022/08/07 05:02:19;;;;;;;;;;;12.50;99.90;;;;;;5116125;28;19925;-83
2022/08/07 05:04:51;;;;;;;;;;;12.60;99.90;;;;;;5013055;28;19932;-82
2022/08/07 05:07:25;;;;;;;;;;;12.60;99.90;;;;;;5116040;28;19929;-82
2022/08/07 05:09:57;;;;;;;;;;;12.70;99.90;;;;;;5012979;28;20028;-82
2022/08/07 05:12:26;;;;;;;;;;;12.70;99.90;;;;;;5028891;28;19925;-82
2022/08/07 05:14:52;;;;;;;;;;;12.70;99.90;;;;;;5116151;28;19925;-82
2022/08/07 05:17:19;;;;;;;;;;;12.80;99.90;;;;;;5012907;28;19932;-82
2022/08/07 05:19:48;;;;;;;;;;;12.80;99.90;;;;;;5115399;28;19925;-82
2022/08/07 05:22:16;;;;;;;;;;;12.80;99.90;;;;;;5029276;28;19933;-82
2022/08/07 05:24:42;;;;;;;;;;;12.90;99.90;;;;;;5115592;28;19925;-82
2022/08/07 05:27:11;;;;;;;;;;;13.00;99.90;;;;;;5115675;28;19925;-82
2022/08/07 05:29:38;;;;;;;;;;;13.00;99.90;;;;;;5012202;28;19937;-82
2022/08/07 05:32:06;;;;;;;;;;;13.10;99.90;;;;;;5116111;28;19934;-82
2022/08/07 05:34:33;;;;;;;;;;;13.10;99.90;;;;;;5028690;28;20370;-82
2022/08/07 05:36:59;;;;;;;;;;;13.20;99.90;;;;;;5115155;28;20026;-81
2022/08/07 05:39:25;;;;;;;;;;;13.20;99.90;;;;;;5028696;28;20461;-83
2022/08/07 05:41:51;;;;;;;;;;;13.40;99.90;;;;;;5028999;28;19925;-82
2022/08/07 05:44:17;;;;;;;;;;;13.40;99.90;;;;;;5115893;28;19977;-82
2022/08/07 05:46:43;;;;;;;;;;;13.50;99.90;;;;;;5012407;28;19932;-82
2022/08/07 05:49:10;;;;;;;;;;;13.60;99.90;;;;;;5115753;28;19925;-82
2022/08/07 05:51:36;;;;;;;;;;;13.70;99.90;;;;;;5028776;28;19925;-82
2022/08/07 05:54:02;;;;;;;;;;;13.80;99.90;;;;;;5133311;27;19932;-82
2022/08/07 05:56:29;;;;;;;;;;;13.90;99.90;;;;;;5012257;28;19929;-83
2022/08/07 05:58:55;;;;;;;;;;;13.90;99.90;;;;;;5012379;28;20365;-82
2022/08/07 06:01:21;;;;;;;;;;;14.00;99.90;;;;;;4996038;28;19925;-82
2022/08/07 06:03:49;;;;;;;;;;;14.10;99.90;;;;;;5012111;28;20280;-82
2022/08/07 06:06:15;;;;;;;;;;;14.20;99.90;;;;;;5014607;28;20315;-82
2022/08/07 06:08:41;;;;;;;;;;;14.30;99.90;;;;;;5015470;28;19925;-82
2022/08/07 06:11:07;;;;;;;;;;;14.40;99.90;;;;;;5032124;28;20413;-82
2022/08/07 06:13:34;;;;;;;;;;;14.50;99.90;;;;;;5015338;28;19925;-82
2022/08/07 06:16:00;;;;;;;;;;;14.50;99.90;;;;;;5015560;28;19925;-82
2022/08/07 06:18:26;;;;;;;;;;;14.70;99.90;;;;;;5031999;28;19932;-82
2022/08/07 06:20:52;;;;;;;;;;;14.80;99.90;;;;;;4998565;28;19931;-82
2022/08/07 06:23:17;;;;;;;;;;;14.90;99.90;;;;;;4999176;28;19930;-82
2022/08/07 06:25:44;;;;;;;;;;;15.00;99.90;;;;;;5014909;28;19981;-82
2022/08/07 06:28:09;;;;;;;;;;;15.00;99.90;;;;;;5015400;28;19925;-82
2022/08/07 06:30:36;;;;;;;;;;;15.10;99.90;;;;;;5118740;27;19932;-82
2022/08/07 06:33:02;;;;;;;;;;;15.20;99.90;;;;;;5031699;28;19926;-82
2022/08/07 06:35:28;;;;;;;;;;;15.30;99.90;;;;;;5031428;28;19946;-82
2022/08/07 06:37:54;;;;;;;;;;;15.40;99.90;;;;;;5014541;28;20008;-83
2022/08/07 06:40:20;;;;;;;;;;;15.50;99.90;;;;;;5031350;28;19926;-82
2022/08/07 06:42:46;;;;;;;;;;;15.50;99.90;;;;;;5014964;28;19933;-82
2022/08/07 06:45:14;;;;;;;;;;;15.60;99.90;;;;;;5031399;28;20021;-82
2022/08/07 06:47:40;;;;;;;;;;;15.60;99.90;;;;;;5031355;28;19925;-82
2022/08/07 06:50:06;;;;;;;;;;;15.70;99.90;;;;;;5031471;28;19979;-83
2022/08/07 06:52:36;;;;;;;;;;;15.80;99.90;;;;;;5014923;28;19926;-82
2022/08/07 06:55:08;;;;;;;;;;;15.90;99.90;;;;;;5014846;28;19970;-82
2022/08/07 06:57:34;;;;;;;;;;;15.90;99.90;;;;;;5014751;28;19926;-83
2022/08/07 07:00:00;;;;;;;;;;;16.10;99.90;;;;;;5118374;27;19925;-82
2022/08/07 07:02:26;;;;;;;;;;;16.10;99.90;;;;;;5014919;28;19929;-83
2022/08/07 07:04:52;;;;;;;;;;;16.10;99.90;;;;;;5031048;28;19929;-81
2022/08/07 07:07:18;;;;;;;;;;;16.20;99.90;;;;;;5031180;28;20258;-82
2022/08/07 07:09:44;;;;;;;;;;;16.20;99.90;;;;;;5014469;28;19925;-82
2022/08/07 07:12:13;;;;;;;;;;;16.30;99.90;;;;;;4998428;28;19926;-83
2022/08/07 07:14:50;;;;;;;;;;;16.40;99.90;;;;;;5014491;28;19925;-83
2022/08/07 07:17:23;;;;;;;;;;;16.60;99.90;;;;;;5030700;28;20400;-83
2022/08/07 07:19:51;;;;;;;;;;;16.70;99.90;;;;;;5030581;28;19925;-83
2022/08/07 07:22:17;;;;;;;;;;;16.70;99.90;;;;;;5030650;28;20446;-83
2022/08/07 07:24:43;;;;;;;;;;;16.80;99.90;;;;;;4997913;28;19925;-83
2022/08/07 07:27:10;;;;;;;;;;;16.90;99.90;;;;;;4998134;28;19978;-83
2022/08/07 07:29:37;;;;;;;;;;;17.00;99.90;;;;;;5014440;28;19925;-82
2022/08/07 07:32:05;;;;;;;;;;;17.10;99.90;;;;;;5030786;28;20021;-83
2022/08/07 07:34:31;;;;;;;;;;;17.10;99.90;;;;;;5030418;28;20008;-82
2022/08/07 07:37:01;;;;;;;;;;;17.20;99.90;;;;;;5030170;28;19929;-83
2022/08/07 07:39:28;;;;;;;;;;;17.30;99.90;;;;;;5014017;28;20020;-83
2022/08/07 07:41:55;;;;;;;;;;;17.40;99.90;;;;;;5013968;28;19925;-83
2022/08/07 07:44:21;;;;;;;;;;;17.40;99.90;;;;;;5030639;28;19929;-83
2022/08/07 07:46:48;;;;;;;;;;;17.60;99.90;;;;;;5030023;28;19929;-82
2022/08/07 07:49:16;;;;;;;;;;;17.60;99.90;;;;;;5117253;27;19925;-82
2022/08/07 07:51:43;;;;;;;;;;;17.70;99.90;;;;;;5030381;28;19970;-83
2022/08/07 07:54:10;;;;;;;;;;;17.70;99.90;;;;;;5030392;28;20008;-83
2022/08/07 07:56:37;;;;;;;;;;;17.80;99.90;;;;;;5030463;28;19925;-82
2022/08/07 07:59:03;;;;;;;;;;;17.80;99.90;;;;;;5030093;28;19925;-83
2022/08/07 08:01:30;;;;;;;;;;;17.90;99.90;;;;;;5030323;28;20359;-83
2022/08/07 08:03:58;;;;;;;;;;;17.90;99.90;;;;;;5013754;28;19929;-83
2022/08/07 08:06:24;;;;;;;;;;;17.90;99.90;;;;;;5013805;28;19925;-83
2022/08/07 08:08:51;;;;;;;;;;;18.00;99.90;;;;;;5013619;28;20265;-83
2022/08/07 08:11:17;;;;;;;;;;;18.10;99.90;;;;;;4997510;28;20412;-83
2022/08/07 08:13:44;;;;;;;;;;;18.20;99.90;;;;;;5116798;27;19976;-93
2022/08/07 08:16:13;;;;;;;;;;;18.30;99.90;;;;;;5013735;28;20258;-83
2022/08/07 08:18:39;;;;;;;;;;;18.50;99.90;;;;;;5030295;28;19972;-82
2022/08/07 08:21:05;;;;;;;;;;;18.60;99.90;;;;;;5116131;27;20463;-82
2022/08/07 08:29:01;;;;;;;;;;;18.80;99.90;;;;;;5133012;27;20276;-82
2022/08/07 08:31:29;;;;;;;;;;;18.90;99.90;;;;;;5030025;28;20019;-82
2022/08/07 08:33:56;;;;;;;;;;;18.80;99.90;;;;;;5115925;27;19991;-83
2022/08/07 08:36:26;;;;;;;;;;;18.80;99.90;;;;;;5116153;27;19968;-83
2022/08/07 08:38:53;;;;;;;;;;;18.90;99.90;;;;;;5012786;28;20384;-83
2022/08/07 08:41:27;;;;;;;;;;;19.00;99.90;;;;;;5029872;28;19926;-82
2022/08/07 08:43:59;;;;;;;;;;;19.10;99.90;;;;;;5013077;28;19932;-83
2022/08/07 08:46:25;;;;;;;;;;;19.10;99.90;;;;;;5029366;28;19925;-83
2022/08/07 08:49:11;;;;;;;;;;;19.00;99.90;;;;;;5013053;28;19985;-83
2022/08/07 08:51:40;;;;;;;;;;;18.90;99.90;;;;;;5029842;28;19929;-82
2022/08/07 08:54:14;;;;;;;;;;;19.00;99.90;;;;;;5115656;28;20058;-83
2022/08/07 08:56:42;;;;;;;;;;;19.00;99.90;;;;;;5013203;28;19925;-82
2022/08/07 08:59:16;;;;;;;;;;;19.00;99.90;;;;;;5012787;28;19925;-83
2022/08/07 09:01:52;;;;;;;;;;;19.00;99.90;;;;;;5013089;28;19936;-83
2022/08/07 09:04:33;;;;;;;;;;;19.20;99.90;;;;;;5013066;28;20388;-82
2022/08/07 09:07:05;;;;;;;;;;;19.20;99.90;;;;;;5029056;28;20333;-83
2022/08/07 09:09:37;;;;;;;;;;;19.20;99.90;;;;;;5013174;28;19925;-82
2022/08/07 09:12:26;;;;;;;;;;;19.20;99.90;;;;;;5029273;28;19925;-82
2022/08/07 09:14:52;;;;;;;;;;;19.20;99.90;;;;;;5012786;28;19933;-82
2022/08/07 09:17:36;;;;;;;;;;;19.30;99.90;;;;;;5029291;28;19925;-81
2022/08/07 09:20:11;;;;;;;;;;;19.40;99.90;;;;;;5115573;28;19978;-82
2022/08/07 09:22:37;;;;;;;;;;;19.40;99.90;;;;;;5029141;28;20008;-82
2022/08/07 09:25:16;;;;;;;;;;;19.50;99.90;;;;;;5029080;28;20398;-82
2022/08/07 09:27:44;;;;;;;;;;;19.60;99.90;;;;;;5012792;28;19925;-82
2022/08/07 09:30:11;;;;;;;;;;;19.70;99.90;;;;;;5012509;28;19925;-83
2022/08/07 09:32:45;;;;;;;;;;;19.80;99.90;;;;;;5115856;28;19929;-82
2022/08/07 09:35:11;;;;;;;;;;;19.80;99.90;;;;;;5028759;28;19925;-82
2022/08/07 09:37:52;;;;;;;;;;;19.90;99.90;;;;;;5028541;28;20019;-83
2022/08/07 09:40:25;;;;;;;;;;;19.90;99.90;;;;;;5031338;28;19925;-82
2022/08/07 09:43:02;;;;;;;;;;;19.90;99.90;;;;;;5032533;28;19926;-83
2022/08/07 09:45:34;;;;;;;;;;;19.90;99.90;;;;;;5032143;28;20376;-84
2022/08/07 09:48:06;;;;;;;;;;;19.90;99.90;;;;;;5031994;28;20400;-84
2022/08/07 09:50:34;;;;;;;;;;;20.00;99.90;;;;;;5015932;28;20058;-83
2022/08/07 09:53:01;;;;;;;;;;;20.10;99.90;;;;;;5032165;28;19932;-85
2022/08/07 09:55:45;;;;;;;;;;;20.10;99.90;;;;;;5119361;27;19930;-85
2022/08/07 09:58:25;;;;;;;;;;;20.10;99.90;;;;;;5119305;27;19925;-84
2022/08/07 10:01:03;;;;;;;;;;;20.20;99.90;;;;;;5031985;28;19925;-84
2022/08/07 10:03:34;;;;;;;;;;;20.30;99.90;;;;;;5032151;28;19929;-84
2022/08/07 10:06:20;;;;;;;;;;;20.30;99.90;;;;;;5032041;28;19933;-85
2022/08/07 10:09:13;;;;;;;;;;;20.30;99.90;;;;;;5119191;27;19925;-85
2022/08/07 10:11:44;;;;;;;;;;;20.40;99.90;;;;;;5011603;28;19925;-84
2022/08/07 10:14:22;;;;;;;;;;;20.40;99.90;;;;;;5030835;28;19925;-84
2022/08/07 10:16:58;;;;;;;;;;;20.40;99.90;;;;;;5026564;28;19933;-78
2022/08/07 10:19:43;;;;;;;;;;;20.50;99.90;;;;;;5015606;28;20376;-80
2022/08/07 10:22:08;;;;;;;;;;;20.60;99.90;;;;;;5011119;28;19933;-84
2022/08/07 10:24:44;;;;;;;;;;;20.60;99.90;;;;;;5114955;27;19932;-82
2022/08/07 10:27:10;;;;;;;;;;;20.70;99.90;;;;;;5109341;27;20008;-81
2022/08/07 10:29:35;;;;;;;;;;;20.70;99.90;;;;;;5012326;28;19990;-83
2022/08/07 10:32:32;;;;;;;;;;;20.70;99.90;;;;;;5002992;28;19932;-91
2022/08/07 10:35:11;;;;;;;;;;;20.60;99.90;;;;;;5011481;28;19926;-79
2022/08/07 10:37:49;;;;;;;;;;;20.70;99.90;;;;;;5105417;27;19927;-82
2022/08/07 10:40:21;;;;;;;;;;;20.70;99.90;;;;;;5011073;28;19925;-79
2022/08/07 10:42:59;;;;;;;;;;;20.90;99.90;;;;;;5012796;28;20357;-80
2022/08/07 10:45:38;;;;;;;;;;;21.00;99.90;;;;;;4995241;28;19925;-81
2022/08/07 10:48:07;;;;;;;;;;;21.20;99.90;;;;;;5077828;28;19976;-83
2022/08/07 10:50:32;;;;;;;;;;;21.40;99.90;;;;;;5014125;28;19926;-90
2022/08/07 10:52:58;;;;;;;;;;;21.70;99.90;;;;;;5012332;28;20004;-83
2022/08/07 10:55:35;;;;;;;;;;;21.90;99.90;;;;;;5029253;28;20373;-86
2022/08/07 10:58:01;;;;;;;;;;;22.10;99.90;;;;;;5022371;28;20374;-82
2022/08/07 11:00:30;;;;;;;;;;;22.20;99.90;;;;;;5124849;27;20006;-84
2022/08/07 11:03:15;;;;;;;;;;;22.30;99.90;;;;;;5063717;28;19929;-82
2022/08/07 11:06:00;;;;;;;;;;;22.30;99.90;;;;;;5036542;27;19944;-83
2022/08/07 11:08:40;;;;;;;;;;;22.20;99.60;;;;;;5022771;28;19974;-85
2022/08/07 11:11:25;;;;;;;;;;;22.20;99.80;;;;;;4999980;28;20301;-87
2022/08/07 11:14:00;;;;;;;;;;;22.10;99.90;;;;;;5100808;27;19933;-84
2022/08/07 11:16:33;;;;;;;;;;;22.20;99.40;;;;;;5027436;28;20012;-88
2022/08/07 11:19:01;;;;;;;;;;;22.30;99.80;;;;;;5013690;28;19991;-88
2022/08/07 11:21:36;;;;;;;;;;;22.30;99.30;;;;;;5005096;28;19933;-88
2022/08/07 11:24:20;;;;;;;;;;;22.20;98.80;;;;;;5020876;28;19925;-88
2022/08/07 11:26:49;;;;;;;;;;;22.30;98.00;;;;;;5035737;27;19967;-88
2022/08/07 11:29:25;;;;;;;;;;;22.20;98.40;;;;;;5029973;28;20369;-88
2022/08/07 11:31:54;;;;;;;;;;;22.40;98.10;;;;;;5014825;28;19968;-88
2022/08/07 11:34:30;;;;;;;;;;;22.80;98.30;;;;;;5030892;28;20016;-88
2022/08/07 11:37:05;;;;;;;;;;;23.10;97.70;;;;;;5117507;27;20376;-88
2022/08/07 11:39:49;;;;;;;;;;;23.20;97.00;;;;;;5015125;28;19944;-87
2022/08/07 11:42:34;;;;;;;;;;;22.90;97.20;;;;;;5014121;28;20289;-88
2022/08/07 11:45:02;;;;;;;;;;;22.70;98.80;;;;;;5014730;28;19936;-89
2022/08/07 11:47:47;;;;;;;;;;;23.10;98.90;;;;;;4994658;28;19932;-88
2022/08/07 11:50:22;;;;;;;;;;;23.20;99.10;;;;;;5028893;28;19925;-87
2022/08/07 11:53:08;;;;;;;;;;;23.20;99.30;;;;;;5026167;28;19991;-88
2022/08/07 11:55:43;;;;;;;;;;;23.10;99.20;;;;;;5021066;28;20016;-89
2022/08/07 11:58:24;;;;;;;;;;;23.70;99.30;;;;;;5014289;28;19925;-88
2022/08/07 12:00:56;;;;;;;;;;;24.00;98.80;;;;;;5010610;28;19925;-89
2022/08/07 12:03:25;;;;;;;;;;;24.00;98.70;;;;;;5113231;27;20020;-89
2022/08/07 12:06:19;;;;;;;;;;;24.20;98.60;;;;;;5097221;28;19983;-89
2022/08/07 12:08:53;;;;;;;;;;;24.50;98.10;;;;;;5097121;28;19925;-88
2022/08/07 12:11:22;;;;;;;;;;;23.70;97.90;;;;;;5097860;28;19932;-88
2022/08/07 12:13:56;;;;;;;;;;;23.50;99.10;;;;;;5072869;27;20394;-86
2022/08/07 12:16:31;;;;;;;;;;;23.30;99.20;;;;;;5010066;28;19926;-93
2022/08/07 12:19:13;;;;;;;;;;;22.90;99.20;;;;;;5035425;27;19929;-92
2022/08/07 12:21:44;;;;;;;;;;;22.80;99.90;;;;;;5103540;27;19925;-89
2022/08/07 12:24:15;;;;;;;;;;;22.60;99.60;;;;;;5030235;28;20376;-90
2022/08/07 12:26:47;;;;;;;;;;;22.40;99.90;;;;;;5029470;28;20019;-91
2022/08/07 12:29:28;;;;;;;;;;;22.90;99.90;;;;;;5029625;28;19925;-86
2022/08/07 12:31:57;;;;;;;;;;;23.50;99.90;;;;;;5013065;28;19926;-87
2022/08/07 12:34:25;;;;;;;;;;;23.90;98.30;;;;;;5028916;28;19925;-82
2022/08/07 12:36:52;;;;;;;;;;;24.20;97.60;;;;;;5028361;28;19971;-82
2022/08/07 12:39:18;;;;;;;;;;;24.20;97.90;;;;;;5024251;28;19933;-83
2022/08/07 12:41:44;;;;;;;;;;;23.90;97.90;;;;;;4994874;28;19937;-82
2022/08/07 12:44:11;;;;;;;;;;;24.00;97.70;;;;;;5025318;28;20285;-90
2022/08/07 12:46:47;;;;;;;;;;;24.70;98.20;;;;;;5036531;27;20605;-83
2022/08/07 12:49:32;;;;;;;;;;;24.90;96.00;;;;;;5010274;28;20296;-81
2022/08/07 12:52:01;;;;;;;;;;;25.00;95.60;;;;;;5026370;28;19936;-83
2022/08/07 12:54:29;;;;;;;;;;;25.10;96.00;;;;;;5015709;28;19934;-83
2022/08/07 12:56:56;;;;;;;;;;;25.30;95.60;;;;;;5027682;28;19936;-82
2022/08/07 12:59:24;;;;;;;;;;;25.30;94.70;;;;;;4975591;28;19930;-81
2022/08/07 13:01:57;;;;;;;;;;;25.20;94.80;;;;;;5007924;28;19925;-81
2022/08/07 13:04:41;;;;;;;;;;;24.80;95.10;;;;;;4990245;28;20413;-82
2022/08/07 13:07:07;;;;;;;;;;;24.80;95.70;;;;;;5079224;28;19931;-80
2022/08/07 13:09:45;;;;;;;;;;;24.50;95.10;;;;;;5113123;28;19927;-80
2022/08/07 13:12:17;;;;;;;;;;;24.70;95.20;;;;;;5113378;28;19924;-80
2022/08/07 13:14:48;;;;;;;;;;;25.00;94.40;;;;;;5021294;28;19974;-81
2022/08/07 13:17:14;;;;;;;;;;;25.20;93.70;;;;;;5020281;28;19936;-84
2022/08/07 13:20:01;;;;;;;;;;;25.70;92.70;;;;;;5029798;28;19925;-77
2022/08/07 13:22:32;;;;;;;;;;;26.00;92.70;;;;;;5031972;28;19941;-83
2022/08/07 13:24:58;;;;;;;;;;;26.30;94.10;;;;;;5029134;28;20062;-83
2022/08/07 13:27:24;;;;;;;;;;;26.00;92.90;;;;;;5014748;28;20355;-84
2022/08/07 13:30:08;;;;;;;;;;;26.30;92.50;;;;;;5013264;28;19929;-84
2022/08/07 13:32:37;;;;;;;;;;;26.40;92.30;;;;;;5029305;28;19952;-85
2022/08/07 13:35:06;;;;;;;;;;;26.70;92.30;;;;;;5011250;28;19929;-84
2022/08/07 13:37:40;;;;;;;;;;;26.40;92.30;;;;;;5047750;27;20405;-84
2022/08/07 13:40:26;;;;;;;;;;;25.70;93.20;;;;;;5116662;27;20372;-84
2022/08/07 13:42:55;;;;;;;;;;;25.20;93.60;;;;;;5116096;27;19934;-82
2022/08/07 13:45:22;;;;;;;;;;;24.70;94.30;;;;;;5065420;28;19985;-82
2022/08/07 13:47:50;;;;;;;;;;;25.10;96.30;;;;;;5115942;27;19933;-82
2022/08/07 13:50:17;;;;;;;;;;;25.10;96.10;;;;;;5117099;27;19923;-81
2022/08/07 13:52:44;;;;;;;;;;;24.80;96.10;;;;;;5043525;28;19929;-79
2022/08/07 13:55:11;;;;;;;;;;;24.50;96.40;;;;;;4994308;28;20399;-80
2022/08/07 13:57:38;;;;;;;;;;;24.50;97.60;;;;;;5039904;27;20020;-80
2022/08/07 14:00:06;;;;;;;;;;;24.00;96.60;;;;;;5036966;27;19932;-79
2022/08/07 14:02:32;;;;;;;;;;;24.00;97.10;;;;;;5012799;28;19952;-78
2022/08/07 14:05:00;;;;;;;;;;;23.80;97.70;;;;;;5012514;28;20013;-77
2022/08/07 14:07:36;;;;;;;;;;;23.90;98.40;;;;;;5019555;28;20025;-78
2022/08/07 14:10:02;;;;;;;;;;;24.70;97.90;;;;;;5009669;28;19929;-79
2022/08/07 14:12:50;;;;;;;;;;;25.40;96.70;;;;;;5012151;28;19998;-79
2022/08/07 14:15:36;;;;;;;;;;;25.80;96.30;;;;;;5007116;28;19948;-79
2022/08/07 14:18:07;;;;;;;;;;;25.90;96.20;;;;;;5095893;28;19937;-79
2022/08/07 14:20:35;;;;;;;;;;;25.50;95.50;;;;;;5095077;28;20377;-80
2022/08/07 14:23:07;;;;;;;;;;;25.60;95.50;;;;;;5127302;27;19929;-80
2022/08/07 14:25:33;;;;;;;;;;;26.60;96.30;;;;;;5110122;27;19936;-79
2022/08/07 14:28:03;;;;;;;;;;;26.70;94.60;;;;;;5025457;28;19937;-79
2022/08/07 14:30:29;;;;;;;;;;;26.00;94.70;;;;;;5028869;28;20430;-80
2022/08/07 14:32:57;;;;;;;;;;;25.40;95.90;;;;;;5019710;27;19937;-80
2022/08/07 14:35:28;;;;;;;;;;;25.20;96.50;;;;;;5012717;28;20369;-79